sensor_id;sensor_type;location;lat;lon;timestamp;P1;durP1;ratioP1;P2;durP2;ratioP2
14554;SDS011;7364;50.870;4.722;2024-01-06T00:02:21;8.63;;;4.67;;
14554;SDS011;7364;50.870;4.722;2024-01-06T00:04:48;8.37;;;5.37;;
14554;SDS011;7364;50.870;4.722;2024-01-06T00:07:15;8.50;;;4.97;;
14554;SDS011;7364;50.870;4.722;2024-01-06T00:09:43;5.73;;;5.10;;
14554;SDS011;7364;50.870;4.722;2024-01-06T00:12:10;8.60;;;4.50;;
14554;SDS011;7364;50.870;4.722;2024-01-06T00:14:37;7.53;;;4.93;;
14554;SDS011;7364;50.870;4.722;2024-01-06T00:17:07;6.93;;;4.33;;
14554;SDS011;7364;50.870;4.722;2024-01-06T00:19:35;9.50;;;4.70;;
14554;SDS011;7364;50.870;4.722;2024-01-06T00:22:03;7.40;;;4.50;;
14554;SDS011;7364;50.870;4.722;2024-01-06T00:24:30;6.77;;;4.77;;
14554;SDS011;7364;50.870;4.722;2024-01-06T00:26:57;7.80;;;4.90;;
14554;SDS011;7364;50.870;4.722;2024-01-06T00:29:24;8.00;;;4.20;;
14554;SDS011;7364;50.870;4.722;2024-01-06T00:31:52;8.43;;;4.97;;
14554;SDS011;7364;50.870;4.722;2024-01-06T00:34:19;10.40;;;4.97;;
14554;SDS011;7364;50.870;4.722;2024-01-06T00:36:47;7.60;;;5.20;;
14554;SDS011;7364;50.870;4.722;2024-01-06T00:39:14;6.87;;;4.27;;
14554;SDS011;7364;50.870;4.722;2024-01-06T00:41:41;9.50;;;5.33;;
14554;SDS011;7364;50.870;4.722;2024-01-06T00:44:08;8.03;;;4.93;;
14554;SDS011;7364;50.870;4.722;2024-01-06T00:46:36;6.47;;;4.90;;
14554;SDS011;7364;50.870;4.722;2024-01-06T00:49:03;7.53;;;5.20;;
14554;SDS011;7364;50.870;4.722;2024-01-06T00:51:30;6.57;;;5.40;;
14554;SDS011;7364;50.870;4.722;2024-01-06T00:53:58;6.87;;;5.17;;
14554;SDS011;7364;50.870;4.722;2024-01-06T00:56:26;6.20;;;4.40;;
14554;SDS011;7364;50.870;4.722;2024-01-06T00:58:54;8.53;;;5.33;;
14554;SDS011;7364;50.870;4.722;2024-01-06T01:01:21;6.70;;;5.27;;
14554;SDS011;7364;50.870;4.722;2024-01-06T01:03:48;10.60;;;5.37;;
14554;SDS011;7364;50.870;4.722;2024-01-06T01:06:15;8.47;;;5.40;;
14554;SDS011;7364;50.870;4.722;2024-01-06T01:08:44;8.57;;;4.27;;
14554;SDS011;7364;50.870;4.722;2024-01-06T01:11:13;6.93;;;5.77;;
14554;SDS011;7364;50.870;4.722;2024-01-06T01:13:40;8.77;;;5.17;;
14554;SDS011;7364;50.870;4.722;2024-01-06T01:16:07;7.90;;;5.83;;
14554;SDS011;7364;50.870;4.722;2024-01-06T01:18:34;14.00;;;5.57;;
14554;SDS011;7364;50.870;4.722;2024-01-06T01:21:01;8.80;;;5.60;;
14554;SDS011;7364;50.870;4.722;2024-01-06T01:23:29;7.87;;;5.30;;
14554;SDS011;7364;50.870;4.722;2024-01-06T01:25:56;7.83;;;5.13;;
14554;SDS011;7364;50.870;4.722;2024-01-06T01:28:24;8.20;;;5.23;;
14554;SDS011;7364;50.870;4.722;2024-01-06T01:30:52;7.87;;;5.40;;
14554;SDS011;7364;50.870;4.722;2024-01-06T01:33:19;5.50;;;4.90;;
14554;SDS011;7364;50.870;4.722;2024-01-06T01:35:46;6.17;;;5.07;;
14554;SDS011;7364;50.870;4.722;2024-01-06T01:38:13;11.03;;;5.60;;
14554;SDS011;7364;50.870;4.722;2024-01-06T01:40:40;5.30;;;4.40;;
14554;SDS011;7364;50.870;4.722;2024-01-06T01:43:15;6.33;;;4.93;;
14554;SDS011;7364;50.870;4.722;2024-01-06T01:45:44;6.83;;;4.07;;
14554;SDS011;7364;50.870;4.722;2024-01-06T01:48:14;4.20;;;3.53;;
14554;SDS011;7364;50.870;4.722;2024-01-06T01:50:41;5.23;;;3.63;;
14554;SDS011;7364;50.870;4.722;2024-01-06T01:53:08;5.87;;;4.20;;
14554;SDS011;7364;50.870;4.722;2024-01-06T01:55:36;5.27;;;3.87;;
14554;SDS011;7364;50.870;4.722;2024-01-06T01:58:04;6.33;;;3.50;;
14554;SDS011;7364;50.870;4.722;2024-01-06T02:00:31;5.83;;;3.73;;
14554;SDS011;7364;50.870;4.722;2024-01-06T02:03:00;5.03;;;3.40;;
14554;SDS011;7364;50.870;4.722;2024-01-06T02:05:29;4.33;;;3.23;;
14554;SDS011;7364;50.870;4.722;2024-01-06T02:07:56;6.23;;;3.13;;
14554;SDS011;7364;50.870;4.722;2024-01-06T02:10:24;6.70;;;3.33;;
14554;SDS011;7364;50.870;4.722;2024-01-06T02:12:51;5.47;;;2.90;;
14554;SDS011;7364;50.870;4.722;2024-01-06T02:15:20;4.73;;;3.17;;
14554;SDS011;7364;50.870;4.722;2024-01-06T02:17:47;4.17;;;3.20;;
14554;SDS011;7364;50.870;4.722;2024-01-06T02:20:16;3.77;;;2.83;;
14554;SDS011;7364;50.870;4.722;2024-01-06T02:22:46;3.23;;;2.70;;
14554;SDS011;7364;50.870;4.722;2024-01-06T02:25:13;5.73;;;2.87;;
14554;SDS011;7364;50.870;4.722;2024-01-06T02:27:41;3.73;;;2.20;;
14554;SDS011;7364;50.870;4.722;2024-01-06T02:30:08;2.67;;;2.20;;
14554;SDS011;7364;50.870;4.722;2024-01-06T02:32:36;3.87;;;2.87;;
14554;SDS011;7364;50.870;4.722;2024-01-06T02:35:03;4.73;;;3.50;;
14554;SDS011;7364;50.870;4.722;2024-01-06T02:37:31;4.23;;;3.03;;
14554;SDS011;7364;50.870;4.722;2024-01-06T02:39:59;4.83;;;3.43;;
14554;SDS011;7364;50.870;4.722;2024-01-06T02:42:26;7.43;;;3.83;;
14554;SDS011;7364;50.870;4.722;2024-01-06T02:44:53;6.77;;;4.60;;
14554;SDS011;7364;50.870;4.722;2024-01-06T02:47:20;5.93;;;3.93;;
14554;SDS011;7364;50.870;4.722;2024-01-06T02:49:48;6.37;;;4.50;;
14554;SDS011;7364;50.870;4.722;2024-01-06T02:52:15;8.13;;;4.83;;
14554;SDS011;7364;50.870;4.722;2024-01-06T02:54:42;7.57;;;5.63;;
14554;SDS011;7364;50.870;4.722;2024-01-06T02:57:10;8.60;;;6.53;;
14554;SDS011;7364;50.870;4.722;2024-01-06T02:59:38;10.57;;;6.70;;
14554;SDS011;7364;50.870;4.722;2024-01-06T03:02:06;9.47;;;7.50;;
14554;SDS011;7364;50.870;4.722;2024-01-06T03:04:33;10.57;;;6.70;;
14554;SDS011;7364;50.870;4.722;2024-01-06T03:07:00;9.77;;;7.50;;
14554;SDS011;7364;50.870;4.722;2024-01-06T03:09:27;10.17;;;8.07;;
14554;SDS011;7364;50.870;4.722;2024-01-06T03:11:55;11.07;;;8.20;;
14554;SDS011;7364;50.870;4.722;2024-01-06T03:14:23;11.67;;;8.70;;
14554;SDS011;7364;50.870;4.722;2024-01-06T03:16:50;10.80;;;8.30;;
14554;SDS011;7364;50.870;4.722;2024-01-06T03:19:18;11.43;;;7.80;;
14554;SDS011;7364;50.870;4.722;2024-01-06T03:21:45;13.03;;;9.03;;
14554;SDS011;7364;50.870;4.722;2024-01-06T03:24:12;12.00;;;9.13;;
14554;SDS011;7364;50.870;4.722;2024-01-06T03:26:39;17.37;;;10.90;;
14554;SDS011;7364;50.870;4.722;2024-01-06T03:29:07;13.73;;;8.63;;
14554;SDS011;7364;50.870;4.722;2024-01-06T03:31:35;14.30;;;10.10;;
14554;SDS011;7364;50.870;4.722;2024-01-06T03:34:03;13.80;;;10.17;;
14554;SDS011;7364;50.870;4.722;2024-01-06T03:36:30;14.37;;;10.77;;
14554;SDS011;7364;50.870;4.722;2024-01-06T03:38:57;15.87;;;10.93;;
14554;SDS011;7364;50.870;4.722;2024-01-06T03:41:24;15.23;;;11.00;;
14554;SDS011;7364;50.870;4.722;2024-01-06T03:43:51;15.93;;;10.37;;
14554;SDS011;7364;50.870;4.722;2024-01-06T03:46:18;18.37;;;9.97;;
14554;SDS011;7364;50.870;4.722;2024-01-06T03:48:47;13.33;;;10.23;;
14554;SDS011;7364;50.870;4.722;2024-01-06T03:51:14;15.30;;;11.07;;
14554;SDS011;7364;50.870;4.722;2024-01-06T03:53:42;14.60;;;10.73;;
14554;SDS011;7364;50.870;4.722;2024-01-06T03:56:09;15.07;;;11.43;;
14554;SDS011;7364;50.870;4.722;2024-01-06T03:58:36;18.20;;;11.10;;
14554;SDS011;7364;50.870;4.722;2024-01-06T04:01:03;17.50;;;10.87;;
14554;SDS011;7364;50.870;4.722;2024-01-06T04:03:30;16.07;;;11.83;;
14554;SDS011;7364;50.870;4.722;2024-01-06T04:05:59;19.10;;;12.30;;
14554;SDS011;7364;50.870;4.722;2024-01-06T04:08:26;19.93;;;13.43;;
14554;SDS011;7364;50.870;4.722;2024-01-06T04:10:53;18.97;;;12.43;;
14554;SDS011;7364;50.870;4.722;2024-01-06T04:13:20;20.57;;;14.33;;
14554;SDS011;7364;50.870;4.722;2024-01-06T04:15:50;19.47;;;12.83;;
14554;SDS011;7364;50.870;4.722;2024-01-06T04:18:17;21.67;;;12.40;;
14554;SDS011;7364;50.870;4.722;2024-01-06T04:20:44;21.83;;;12.57;;
14554;SDS011;7364;50.870;4.722;2024-01-06T04:23:12;16.10;;;12.93;;
14554;SDS011;7364;50.870;4.722;2024-01-06T04:25:40;20.93;;;13.30;;
14554;SDS011;7364;50.870;4.722;2024-01-06T04:28:07;18.87;;;10.37;;
14554;SDS011;7364;50.870;4.722;2024-01-06T04:30:34;17.50;;;11.13;;
14554;SDS011;7364;50.870;4.722;2024-01-06T04:33:01;25.20;;;11.37;;
14554;SDS011;7364;50.870;4.722;2024-01-06T04:35:32;10.80;;;9.37;;
14554;SDS011;7364;50.870;4.722;2024-01-06T04:37:59;11.03;;;8.00;;
14554;SDS011;7364;50.870;4.722;2024-01-06T04:40:28;12.57;;;9.43;;
14554;SDS011;7364;50.870;4.722;2024-01-06T04:42:55;11.13;;;8.20;;
14554;SDS011;7364;50.870;4.722;2024-01-06T04:45:22;10.40;;;7.47;;
14554;SDS011;7364;50.870;4.722;2024-01-06T04:47:50;14.47;;;7.40;;
14554;SDS011;7364;50.870;4.722;2024-01-06T04:50:18;13.47;;;7.53;;
14554;SDS011;7364;50.870;4.722;2024-01-06T04:52:45;10.77;;;7.47;;
14554;SDS011;7364;50.870;4.722;2024-01-06T04:55:12;10.23;;;8.23;;
14554;SDS011;7364;50.870;4.722;2024-01-06T04:57:40;11.70;;;8.17;;
14554;SDS011;7364;50.870;4.722;2024-01-06T05:00:08;15.37;;;8.53;;
14554;SDS011;7364;50.870;4.722;2024-01-06T05:02:37;17.27;;;7.70;;
14554;SDS011;7364;50.870;4.722;2024-01-06T05:05:04;12.53;;;7.97;;
14554;SDS011;7364;50.870;4.722;2024-01-06T05:07:31;13.77;;;7.67;;
14554;SDS011;7364;50.870;4.722;2024-01-06T05:09:59;8.33;;;6.67;;
14554;SDS011;7364;50.870;4.722;2024-01-06T05:12:25;16.23;;;7.87;;
14554;SDS011;7364;50.870;4.722;2024-01-06T05:14:53;16.60;;;8.50;;
14554;SDS011;7364;50.870;4.722;2024-01-06T05:17:20;13.27;;;8.17;;
14554;SDS011;7364;50.870;4.722;2024-01-06T05:19:48;10.97;;;7.93;;
14554;SDS011;7364;50.870;4.722;2024-01-06T05:22:15;10.47;;;8.13;;
14554;SDS011;7364;50.870;4.722;2024-01-06T05:24:42;12.93;;;8.70;;
14554;SDS011;7364;50.870;4.722;2024-01-06T05:27:09;13.23;;;7.93;;
14554;SDS011;7364;50.870;4.722;2024-01-06T05:29:37;19.43;;;8.60;;
14554;SDS011;7364;50.870;4.722;2024-01-06T05:32:05;12.43;;;8.30;;
14554;SDS011;7364;50.870;4.722;2024-01-06T05:34:33;12.23;;;9.27;;
14554;SDS011;7364;50.870;4.722;2024-01-06T05:37:00;12.43;;;8.20;;
14554;SDS011;7364;50.870;4.722;2024-01-06T05:39:27;16.63;;;9.03;;
14554;SDS011;7364;50.870;4.722;2024-01-06T05:41:54;15.23;;;10.37;;
14554;SDS011;7364;50.870;4.722;2024-01-06T05:44:21;14.73;;;7.97;;
14554;SDS011;7364;50.870;4.722;2024-01-06T05:46:48;13.93;;;8.77;;
14554;SDS011;7364;50.870;4.722;2024-01-06T05:49:17;14.37;;;10.23;;
14554;SDS011;7364;50.870;4.722;2024-01-06T05:51:45;11.77;;;9.17;;
14554;SDS011;7364;50.870;4.722;2024-01-06T05:54:12;13.90;;;9.20;;
14554;SDS011;7364;50.870;4.722;2024-01-06T05:56:39;12.43;;;9.23;;
14554;SDS011;7364;50.870;4.722;2024-01-06T05:59:07;16.93;;;9.33;;
14554;SDS011;7364;50.870;4.722;2024-01-06T06:01:34;12.63;;;9.50;;
14554;SDS011;7364;50.870;4.722;2024-01-06T06:04:01;15.37;;;8.40;;
14554;SDS011;7364;50.870;4.722;2024-01-06T06:06:30;14.23;;;9.77;;
14554;SDS011;7364;50.870;4.722;2024-01-06T06:08:58;10.63;;;8.90;;
14554;SDS011;7364;50.870;4.722;2024-01-06T06:11:25;14.87;;;9.23;;
14554;SDS011;7364;50.870;4.722;2024-01-06T06:13:52;12.87;;;9.77;;
14554;SDS011;7364;50.870;4.722;2024-01-06T06:16:19;11.43;;;8.80;;
14554;SDS011;7364;50.870;4.722;2024-01-06T06:18:46;12.67;;;8.77;;
14554;SDS011;7364;50.870;4.722;2024-01-06T06:21:13;12.60;;;9.10;;
14554;SDS011;7364;50.870;4.722;2024-01-06T06:23:42;12.13;;;8.40;;
14554;SDS011;7364;50.870;4.722;2024-01-06T06:26:09;14.57;;;8.67;;
14554;SDS011;7364;50.870;4.722;2024-01-06T06:28:37;18.17;;;9.03;;
14554;SDS011;7364;50.870;4.722;2024-01-06T06:31:05;11.77;;;8.77;;
14554;SDS011;7364;50.870;4.722;2024-01-06T06:33:33;10.17;;;8.00;;
14554;SDS011;7364;50.870;4.722;2024-01-06T06:36:00;13.73;;;9.07;;
14554;SDS011;7364;50.870;4.722;2024-01-06T06:38:27;10.80;;;7.77;;
14554;SDS011;7364;50.870;4.722;2024-01-06T06:40:56;10.10;;;6.87;;
14554;SDS011;7364;50.870;4.722;2024-01-06T06:43:23;9.17;;;5.90;;
14554;SDS011;7364;50.870;4.722;2024-01-06T06:45:51;7.17;;;5.40;;
14554;SDS011;7364;50.870;4.722;2024-01-06T06:48:18;7.50;;;6.10;;
14554;SDS011;7364;50.870;4.722;2024-01-06T06:50:45;9.13;;;5.33;;
14554;SDS011;7364;50.870;4.722;2024-01-06T06:53:12;6.87;;;5.70;;
14554;SDS011;7364;50.870;4.722;2024-01-06T06:55:39;6.87;;;4.87;;
14554;SDS011;7364;50.870;4.722;2024-01-06T06:58:08;6.73;;;4.37;;
14554;SDS011;7364;50.870;4.722;2024-01-06T07:00:35;6.90;;;5.10;;
14554;SDS011;7364;50.870;4.722;2024-01-06T07:03:03;6.10;;;4.67;;
14554;SDS011;7364;50.870;4.722;2024-01-06T07:05:30;6.23;;;4.97;;
14554;SDS011;7364;50.870;4.722;2024-01-06T07:07:59;7.47;;;4.97;;
14554;SDS011;7364;50.870;4.722;2024-01-06T07:10:27;7.13;;;5.27;;
14554;SDS011;7364;50.870;4.722;2024-01-06T07:12:54;7.27;;;5.17;;
14554;SDS011;7364;50.870;4.722;2024-01-06T07:15:22;6.60;;;5.03;;
14554;SDS011;7364;50.870;4.722;2024-01-06T07:17:49;7.70;;;5.27;;
14554;SDS011;7364;50.870;4.722;2024-01-06T07:20:17;7.57;;;6.27;;
14554;SDS011;7364;50.870;4.722;2024-01-06T07:22:44;8.50;;;6.13;;
14554;SDS011;7364;50.870;4.722;2024-01-06T07:25:12;8.53;;;5.73;;
14554;SDS011;7364;50.870;4.722;2024-01-06T07:27:39;10.80;;;6.27;;
14554;SDS011;7364;50.870;4.722;2024-01-06T07:30:07;8.40;;;6.37;;
14554;SDS011;7364;50.870;4.722;2024-01-06T07:32:36;8.47;;;6.77;;
14554;SDS011;7364;50.870;4.722;2024-01-06T07:35:03;10.53;;;7.03;;
14554;SDS011;7364;50.870;4.722;2024-01-06T07:37:31;8.40;;;6.70;;
14554;SDS011;7364;50.870;4.722;2024-01-06T07:39:59;11.13;;;6.87;;
14554;SDS011;7364;50.870;4.722;2024-01-06T07:42:26;10.73;;;8.10;;
14554;SDS011;7364;50.870;4.722;2024-01-06T07:44:53;11.73;;;8.70;;
14554;SDS011;7364;50.870;4.722;2024-01-06T07:47:20;10.27;;;8.60;;
14554;SDS011;7364;50.870;4.722;2024-01-06T07:49:50;11.83;;;8.90;;
14554;SDS011;7364;50.870;4.722;2024-01-06T07:52:18;11.83;;;8.17;;
14554;SDS011;7364;50.870;4.722;2024-01-06T07:54:45;12.03;;;8.40;;
14554;SDS011;7364;50.870;4.722;2024-01-06T07:57:13;14.87;;;8.10;;
14554;SDS011;7364;50.870;4.722;2024-01-06T07:59:40;13.17;;;8.43;;
14554;SDS011;7364;50.870;4.722;2024-01-06T08:02:08;14.23;;;10.07;;
14554;SDS011;7364;50.870;4.722;2024-01-06T08:04:35;13.13;;;9.13;;
14554;SDS011;7364;50.870;4.722;2024-01-06T08:07:04;13.87;;;8.33;;
14554;SDS011;7364;50.870;4.722;2024-01-06T08:09:31;13.40;;;8.93;;
14554;SDS011;7364;50.870;4.722;2024-01-06T08:11:58;9.83;;;8.40;;
14554;SDS011;7364;50.870;4.722;2024-01-06T08:14:25;10.53;;;6.97;;
14554;SDS011;7364;50.870;4.722;2024-01-06T08:16:52;10.27;;;8.00;;
14554;SDS011;7364;50.870;4.722;2024-01-06T08:19:19;10.40;;;7.97;;
14554;SDS011;7364;50.870;4.722;2024-01-06T08:21:46;10.63;;;7.73;;
14554;SDS011;7364;50.870;4.722;2024-01-06T08:24:15;12.03;;;8.20;;
14554;SDS011;7364;50.870;4.722;2024-01-06T08:26:43;18.77;;;9.90;;
14554;SDS011;7364;50.870;4.722;2024-01-06T08:29:10;12.63;;;7.67;;
14554;SDS011;7364;50.870;4.722;2024-01-06T08:31:39;11.07;;;8.43;;
14554;SDS011;7364;50.870;4.722;2024-01-06T08:34:06;10.47;;;7.00;;
14554;SDS011;7364;50.870;4.722;2024-01-06T08:36:35;10.43;;;6.90;;
14554;SDS011;7364;50.870;4.722;2024-01-06T08:39:02;8.63;;;7.57;;
14554;SDS011;7364;50.870;4.722;2024-01-06T08:41:30;13.43;;;7.53;;
14554;SDS011;7364;50.870;4.722;2024-01-06T08:43:58;9.43;;;6.97;;
14554;SDS011;7364;50.870;4.722;2024-01-06T08:46:25;12.27;;;7.50;;
14554;SDS011;7364;50.870;4.722;2024-01-06T08:48:52;9.83;;;6.90;;
14554;SDS011;7364;50.870;4.722;2024-01-06T08:51:19;9.60;;;7.27;;
14554;SDS011;7364;50.870;4.722;2024-01-06T08:53:46;8.67;;;6.33;;
14554;SDS011;7364;50.870;4.722;2024-01-06T08:56:13;8.43;;;6.00;;
14554;SDS011;7364;50.870;4.722;2024-01-06T08:58:44;11.77;;;6.80;;
14554;SDS011;7364;50.870;4.722;2024-01-06T09:01:12;9.50;;;6.83;;
14554;SDS011;7364;50.870;4.722;2024-01-06T09:03:39;8.83;;;7.00;;
14554;SDS011;7364;50.870;4.722;2024-01-06T09:06:06;9.43;;;6.40;;
14554;SDS011;7364;50.870;4.722;2024-01-06T09:08:33;8.27;;;5.87;;
14554;SDS011;7364;50.870;4.722;2024-01-06T09:11:00;7.57;;;6.10;;
14554;SDS011;7364;50.870;4.722;2024-01-06T09:13:27;8.57;;;5.50;;
14554;SDS011;7364;50.870;4.722;2024-01-06T09:15:56;9.53;;;6.47;;
14554;SDS011;7364;50.870;4.722;2024-01-06T09:18:23;8.20;;;5.83;;
14554;SDS011;7364;50.870;4.722;2024-01-06T09:20:51;8.70;;;6.20;;
14554;SDS011;7364;50.870;4.722;2024-01-06T09:23:19;6.57;;;5.90;;
14554;SDS011;7364;50.870;4.722;2024-01-06T09:25:46;9.80;;;5.53;;
14554;SDS011;7364;50.870;4.722;2024-01-06T09:28:15;8.30;;;5.90;;
14554;SDS011;7364;50.870;4.722;2024-01-06T09:30:42;7.53;;;5.53;;
14554;SDS011;7364;50.870;4.722;2024-01-06T09:33:10;6.97;;;5.17;;
14554;SDS011;7364;50.870;4.722;2024-01-06T09:35:40;9.27;;;5.10;;
14554;SDS011;7364;50.870;4.722;2024-01-06T09:38:09;8.27;;;5.37;;
14554;SDS011;7364;50.870;4.722;2024-01-06T09:40:38;8.13;;;5.20;;
14554;SDS011;7364;50.870;4.722;2024-01-06T09:43:09;8.63;;;5.17;;
14554;SDS011;7364;50.870;4.722;2024-01-06T09:45:36;6.30;;;3.90;;
14554;SDS011;7364;50.870;4.722;2024-01-06T09:48:08;5.40;;;3.70;;
14554;SDS011;7364;50.870;4.722;2024-01-06T09:50:40;6.23;;;4.67;;
14554;SDS011;7364;50.870;4.722;2024-01-06T09:53:10;5.97;;;3.87;;
14554;SDS011;7364;50.870;4.722;2024-01-06T09:55:38;7.67;;;4.17;;
14554;SDS011;7364;50.870;4.722;2024-01-06T09:58:05;5.43;;;4.37;;
14554;SDS011;7364;50.870;4.722;2024-01-06T10:00:33;6.83;;;4.83;;
14554;SDS011;7364;50.870;4.722;2024-01-06T10:03:00;5.27;;;3.93;;
14554;SDS011;7364;50.870;4.722;2024-01-06T10:05:28;6.20;;;4.27;;
14554;SDS011;7364;50.870;4.722;2024-01-06T10:07:55;7.10;;;3.60;;
14554;SDS011;7364;50.870;4.722;2024-01-06T10:10:23;7.63;;;3.80;;
14554;SDS011;7364;50.870;4.722;2024-01-06T10:12:52;6.70;;;4.03;;
14554;SDS011;7364;50.870;4.722;2024-01-06T10:15:20;6.20;;;4.27;;
14554;SDS011;7364;50.870;4.722;2024-01-06T10:17:48;10.70;;;4.53;;
14554;SDS011;7364;50.870;4.722;2024-01-06T10:20:15;8.57;;;4.23;;
14554;SDS011;7364;50.870;4.722;2024-01-06T10:22:46;6.77;;;4.23;;
14554;SDS011;7364;50.870;4.722;2024-01-06T10:25:13;7.40;;;4.97;;
14554;SDS011;7364;50.870;4.722;2024-01-06T10:27:41;6.90;;;4.67;;
14554;SDS011;7364;50.870;4.722;2024-01-06T10:30:09;6.97;;;4.43;;
14554;SDS011;7364;50.870;4.722;2024-01-06T10:32:38;7.03;;;4.70;;
14554;SDS011;7364;50.870;4.722;2024-01-06T10:35:06;8.20;;;5.40;;
14554;SDS011;7364;50.870;4.722;2024-01-06T10:37:34;8.13;;;4.93;;
14554;SDS011;7364;50.870;4.722;2024-01-06T10:40:11;5.47;;;4.57;;
14554;SDS011;7364;50.870;4.722;2024-01-06T10:42:41;5.00;;;3.73;;
14554;SDS011;7364;50.870;4.722;2024-01-06T10:45:10;7.43;;;4.67;;
14554;SDS011;7364;50.870;4.722;2024-01-06T10:47:38;5.90;;;4.40;;
14554;SDS011;7364;50.870;4.722;2024-01-06T10:50:07;7.50;;;4.57;;
14554;SDS011;7364;50.870;4.722;2024-01-06T10:52:35;9.07;;;6.03;;
14554;SDS011;7364;50.870;4.722;2024-01-06T10:55:04;8.60;;;5.40;;
14554;SDS011;7364;50.870;4.722;2024-01-06T10:57:33;7.27;;;4.53;;
14554;SDS011;7364;50.870;4.722;2024-01-06T11:00:00;5.57;;;3.97;;
14554;SDS011;7364;50.870;4.722;2024-01-06T11:02:30;7.27;;;4.43;;
14554;SDS011;7364;50.870;4.722;2024-01-06T11:04:58;7.47;;;4.87;;
14554;SDS011;7364;50.870;4.722;2024-01-06T11:07:25;7.37;;;4.47;;
14554;SDS011;7364;50.870;4.722;2024-01-06T11:09:55;6.97;;;5.00;;
14554;SDS011;7364;50.870;4.722;2024-01-06T11:12:24;5.13;;;4.60;;
14554;SDS011;7364;50.870;4.722;2024-01-06T11:14:53;7.13;;;4.93;;
14554;SDS011;7364;50.870;4.722;2024-01-06T11:20:15;5.97;;;4.47;;
14554;SDS011;7364;50.870;4.722;2024-01-06T11:22:45;6.80;;;3.90;;
14554;SDS011;7364;50.870;4.722;2024-01-06T11:25:13;6.10;;;3.83;;
14554;SDS011;7364;50.870;4.722;2024-01-06T11:27:42;6.67;;;4.07;;
14554;SDS011;7364;50.870;4.722;2024-01-06T11:30:18;6.77;;;4.50;;
14554;SDS011;7364;50.870;4.722;2024-01-06T11:32:46;5.43;;;4.10;;
14554;SDS011;7364;50.870;4.722;2024-01-06T11:35:14;6.80;;;4.77;;
14554;SDS011;7364;50.870;4.722;2024-01-06T11:37:52;6.00;;;4.37;;
14554;SDS011;7364;50.870;4.722;2024-01-06T11:40:23;7.67;;;4.00;;
14554;SDS011;7364;50.870;4.722;2024-01-06T11:42:58;7.10;;;4.73;;
14554;SDS011;7364;50.870;4.722;2024-01-06T11:45:29;5.90;;;4.33;;
14554;SDS011;7364;50.870;4.722;2024-01-06T11:47:58;5.53;;;3.80;;
14554;SDS011;7364;50.870;4.722;2024-01-06T11:50:27;5.43;;;4.00;;
14554;SDS011;7364;50.870;4.722;2024-01-06T11:52:55;6.13;;;3.90;;
14554;SDS011;7364;50.870;4.722;2024-01-06T11:55:23;13.23;;;4.87;;
14554;SDS011;7364;50.870;4.722;2024-01-06T11:57:53;25.87;;;10.63;;
14554;SDS011;7364;50.870;4.722;2024-01-06T12:00:25;20.47;;;9.73;;
14554;SDS011;7364;50.870;4.722;2024-01-06T12:02:56;11.23;;;7.03;;
14554;SDS011;7364;50.870;4.722;2024-01-06T12:05:24;11.77;;;8.60;;
14554;SDS011;7364;50.870;4.722;2024-01-06T12:07:55;11.93;;;7.53;;
14554;SDS011;7364;50.870;4.722;2024-01-06T12:10:23;8.97;;;6.10;;
14554;SDS011;7364;50.870;4.722;2024-01-06T12:12:55;8.80;;;6.10;;
14554;SDS011;7364;50.870;4.722;2024-01-06T12:15:23;11.93;;;7.60;;
14554;SDS011;7364;50.870;4.722;2024-01-06T12:17:51;17.60;;;8.40;;
14554;SDS011;7364;50.870;4.722;2024-01-06T12:20:19;10.30;;;7.40;;
14554;SDS011;7364;50.870;4.722;2024-01-06T12:22:48;10.13;;;7.17;;
14554;SDS011;7364;50.870;4.722;2024-01-06T12:25:16;7.40;;;5.87;;
14554;SDS011;7364;50.870;4.722;2024-01-06T12:27:43;9.33;;;5.60;;
14554;SDS011;7364;50.870;4.722;2024-01-06T12:30:14;5.77;;;4.10;;
14554;SDS011;7364;50.870;4.722;2024-01-06T12:32:44;6.93;;;3.37;;
14554;SDS011;7364;50.870;4.722;2024-01-06T12:35:12;6.00;;;3.40;;
14554;SDS011;7364;50.870;4.722;2024-01-06T12:37:42;6.50;;;4.73;;
14554;SDS011;7364;50.870;4.722;2024-01-06T12:40:10;5.37;;;4.23;;
14554;SDS011;7364;50.870;4.722;2024-01-06T12:42:38;5.57;;;3.90;;
14554;SDS011;7364;50.870;4.722;2024-01-06T12:45:07;6.00;;;4.10;;
14554;SDS011;7364;50.870;4.722;2024-01-06T12:47:36;7.60;;;4.23;;
14554;SDS011;7364;50.870;4.722;2024-01-06T12:50:04;7.77;;;4.87;;
14554;SDS011;7364;50.870;4.722;2024-01-06T12:52:32;6.10;;;4.10;;
14554;SDS011;7364;50.870;4.722;2024-01-06T12:55:00;5.13;;;4.50;;
14554;SDS011;7364;50.870;4.722;2024-01-06T12:57:28;7.80;;;3.73;;
14554;SDS011;7364;50.870;4.722;2024-01-06T12:59:55;6.40;;;4.80;;
14554;SDS011;7364;50.870;4.722;2024-01-06T13:02:22;6.87;;;4.70;;
14554;SDS011;7364;50.870;4.722;2024-01-06T13:04:50;6.10;;;4.27;;
14554;SDS011;7364;50.870;4.722;2024-01-06T13:07:17;7.23;;;4.90;;
14554;SDS011;7364;50.870;4.722;2024-01-06T13:09:44;4.40;;;3.87;;
14554;SDS011;7364;50.870;4.722;2024-01-06T13:12:13;7.53;;;4.97;;
14554;SDS011;7364;50.870;4.722;2024-01-06T13:14:40;9.87;;;4.47;;
14554;SDS011;7364;50.870;4.722;2024-01-06T13:17:09;7.50;;;5.00;;
14554;SDS011;7364;50.870;4.722;2024-01-06T13:19:38;9.57;;;5.53;;
14554;SDS011;7364;50.870;4.722;2024-01-06T13:22:05;6.97;;;3.97;;
14554;SDS011;7364;50.870;4.722;2024-01-06T13:24:32;9.10;;;5.03;;
14554;SDS011;7364;50.870;4.722;2024-01-06T13:27:00;7.23;;;4.70;;
14554;SDS011;7364;50.870;4.722;2024-01-06T13:29:31;5.93;;;4.43;;
14554;SDS011;7364;50.870;4.722;2024-01-06T13:31:58;6.73;;;4.57;;
14554;SDS011;7364;50.870;4.722;2024-01-06T13:34:25;5.57;;;4.43;;
14554;SDS011;7364;50.870;4.722;2024-01-06T13:36:54;5.30;;;4.60;;
14554;SDS011;7364;50.870;4.722;2024-01-06T13:39:22;8.97;;;5.00;;
14554;SDS011;7364;50.870;4.722;2024-01-06T13:41:49;7.60;;;4.40;;
14554;SDS011;7364;50.870;4.722;2024-01-06T13:44:17;8.53;;;4.93;;
14554;SDS011;7364;50.870;4.722;2024-01-06T13:46:45;8.17;;;5.33;;
14554;SDS011;7364;50.870;4.722;2024-01-06T13:49:14;6.20;;;4.23;;
14554;SDS011;7364;50.870;4.722;2024-01-06T13:51:41;8.77;;;5.17;;
14554;SDS011;7364;50.870;4.722;2024-01-06T13:54:09;7.93;;;5.33;;
14554;SDS011;7364;50.870;4.722;2024-01-06T13:56:36;9.43;;;6.17;;
14554;SDS011;7364;50.870;4.722;2024-01-06T13:59:03;5.87;;;4.93;;
14554;SDS011;7364;50.870;4.722;2024-01-06T14:01:31;8.47;;;5.10;;
14554;SDS011;7364;50.870;4.722;2024-01-06T14:03:59;7.53;;;6.17;;
14554;SDS011;7364;50.870;4.722;2024-01-06T14:06:27;7.63;;;4.23;;
14554;SDS011;7364;50.870;4.722;2024-01-06T14:08:55;9.60;;;4.50;;
14554;SDS011;7364;50.870;4.722;2024-01-06T14:11:22;6.40;;;4.83;;
14554;SDS011;7364;50.870;4.722;2024-01-06T14:13:50;6.67;;;4.47;;
14554;SDS011;7364;50.870;4.722;2024-01-06T14:16:18;6.87;;;4.30;;
14554;SDS011;7364;50.870;4.722;2024-01-06T14:18:45;6.93;;;4.90;;
14554;SDS011;7364;50.870;4.722;2024-01-06T14:21:14;6.43;;;3.97;;
14554;SDS011;7364;50.870;4.722;2024-01-06T14:23:44;8.70;;;4.77;;
14554;SDS011;7364;50.870;4.722;2024-01-06T14:26:13;7.40;;;4.30;;
14554;SDS011;7364;50.870;4.722;2024-01-06T14:28:40;8.00;;;3.97;;
14554;SDS011;7364;50.870;4.722;2024-01-06T14:31:07;5.93;;;3.97;;
14554;SDS011;7364;50.870;4.722;2024-01-06T14:33:35;7.53;;;5.20;;
14554;SDS011;7364;50.870;4.722;2024-01-06T14:36:02;8.17;;;5.07;;
14554;SDS011;7364;50.870;4.722;2024-01-06T14:38:35;11.70;;;4.53;;
14554;SDS011;7364;50.870;4.722;2024-01-06T14:41:02;6.00;;;4.63;;
14554;SDS011;7364;50.870;4.722;2024-01-06T14:43:30;5.53;;;4.07;;
14554;SDS011;7364;50.870;4.722;2024-01-06T14:45:57;6.97;;;4.77;;
14554;SDS011;7364;50.870;4.722;2024-01-06T14:48:25;6.50;;;4.83;;
14554;SDS011;7364;50.870;4.722;2024-01-06T14:50:52;7.73;;;4.77;;
14554;SDS011;7364;50.870;4.722;2024-01-06T14:53:19;9.90;;;5.20;;
14554;SDS011;7364;50.870;4.722;2024-01-06T14:55:48;7.03;;;5.07;;
14554;SDS011;7364;50.870;4.722;2024-01-06T14:58:18;6.63;;;4.47;;
14554;SDS011;7364;50.870;4.722;2024-01-06T15:00:45;8.63;;;5.67;;
14554;SDS011;7364;50.870;4.722;2024-01-06T15:03:12;6.43;;;4.47;;